Monterrey Airport, China

5:02 AM EST on March 06, 2015 (GMT -0500)
PrepaUDEM Fundadores | Change Station
CLOSE
Current Station
Personal Weather Station
Location: Escobedo, NUEVO LEON
Elevation: 1630 ft
Nearby Weather Stations

Elev 1630 ft 25.77 °N, 100.30 °W | Updated 1 minute ago

Overcast
Overcast
43.5 °F
Feels Like 41 °F
N
4.0
Wind Variable Wind from NE
Gusts 5.0 mph

Today
High -- | Low -- °F
--% Chance of Precip.
Yesterday
High -- | Low -- °F
Precip. -- in
7:59 AM 7:45 PM
Full, 100% visible
Pressure 30.55 in
Visibility 15.0 miles
Clouds Overcast 6000 ft
Windchill 41 °F
Dew Point 33 °F
Humidity 67%
Rainfall in
Snow Depth Not available.
UV 0 out of 12
Pollen Not available.
Air Quality Not available.
Flu Activity Not available.
METAR MMMY 060845Z 35005KT 15SM OVC060 07/03 A3048 RMK SLP344 57015 949 8/5//

More Conditions Fewer Conditions

Pressure 30.55 in
Visibility 15.0 miles
Clouds Overcast 6000 ft
Windchill 41 °F
Dew Point 33 °F
Humidity 67%
Rainfall in
Snow Depth Not available.
UV 0 out of 12
Pollen Not available.
Air Quality Not available.
Flu Activity Not available.
METAR MMMY 060845Z 35005KT 15SM OVC060 07/03 A3048 RMK SLP344 57015 949 8/5//

More Conditions Fewer Conditions

10-Day Weather Forecast

Almanac

Astronomy

Mar. 06, 2015 Rise Set
Actual Time
Civil Twilight
Nautical Twilight
Astronomical Twilight
Moon
Length of Visible Light
Length of Day
Tomorrow will be .
, % of the Moon is Illuminated

Today's Extremes

Country Highs Country Lows

Community

WunderPhotos

Upload Photos

1,803,216 photos uploaded!

WunderBlogs® & News

Nearby

Air Quality

  Air Quality AQ Index Pollutant
Not available.

Snow Depth

Station Depth Elevation

Earthquake Activity

City Distance Mag. Time & Date
Minimum magnitude displayed is 2.5.

Coastal Water Temperatures

Place Temperature

Nearby Weather Stations